Time;durP1;ratioP1;P1;durP2;ratioP2;P2;SDS_P1;SDS_P2;PMS_P1;PMS_P2;Temp;Humidity;BMP_temperature;BMP_pressure;BME280_temperature;BME280_humidity;BME280_pressure;Samples;Min_cycle;Max_cycle;Signal;HPM_P1;HPM_P2
2022/07/28 00:01:38;;;;;;;6.65;3.15;;;11.90;99.90;;;;;;5099959;27;20080;-73
2022/07/28 00:04:04;;;;;;;6.93;2.80;;;11.90;99.90;;;;;;5101016;27;20035;-74
2022/07/28 00:06:30;;;;;;;4.63;2.47;;;11.80;99.90;;;;;;5104661;27;20078;-76
2022/07/28 00:08:56;;;;;;;7.13;2.33;;;11.70;99.90;;;;;;5099566;27;20126;-75
2022/07/28 00:11:22;;;;;;;5.53;2.10;;;11.80;99.90;;;;;;5101430;27;20079;-76
2022/07/28 00:13:48;;;;;;;2.33;2.08;;;11.80;99.90;;;;;;5103949;27;20394;-76
2022/07/28 00:16:13;;;;;;;5.10;2.10;;;11.70;99.90;;;;;;5102836;27;20043;-75
2022/07/28 00:18:39;;;;;;;3.95;1.70;;;11.70;99.90;;;;;;5104767;27;20042;-75
2022/07/28 00:21:05;;;;;;;6.75;1.73;;;11.60;99.90;;;;;;5106772;27;20458;-74
2022/07/28 00:23:30;;;;;;;4.53;1.95;;;11.60;99.90;;;;;;5085607;27;20042;-75
2022/07/28 00:25:56;;;;;;;5.47;2.08;;;11.60;99.90;;;;;;5103002;27;20493;-75
2022/07/28 00:28:22;;;;;;;2.95;2.20;;;11.50;99.90;;;;;;5108689;27;20043;-75
2022/07/28 00:30:47;;;;;;;4.75;1.88;;;11.40;99.90;;;;;;5092890;27;20409;-76
2022/07/28 00:33:13;;;;;;;3.83;1.80;;;11.70;99.90;;;;;;5100322;27;20125;-76
2022/07/28 00:35:39;;;;;;;4.55;2.17;;;11.50;99.90;;;;;;5106625;27;20441;-74
2022/07/28 00:38:04;;;;;;;4.15;1.70;;;11.40;99.90;;;;;;5096219;28;20432;-75
2022/07/28 00:43:14;;;;;;;4.35;1.80;;;11.30;99.90;;;;;;5101356;27;21274;-74
2022/07/28 00:45:40;;;;;;;5.38;2.17;;;11.30;99.90;;;;;;5090579;27;20039;-75
2022/07/28 00:48:06;;;;;;;3.20;1.77;;;11.30;99.90;;;;;;5112420;27;20141;-74
2022/07/28 00:50:31;;;;;;;3.67;1.50;;;11.30;99.90;;;;;;5106656;27;20047;-74
2022/07/28 00:52:57;;;;;;;4.13;1.95;;;11.40;99.90;;;;;;5106876;28;20455;-75
2022/07/28 00:55:23;;;;;;;5.93;1.90;;;11.30;99.90;;;;;;5098274;28;20064;-76
2022/07/28 00:57:49;;;;;;;4.70;1.90;;;11.40;99.90;;;;;;5099066;28;20048;-74
2022/07/28 01:00:15;;;;;;;3.45;1.95;;;11.30;99.90;;;;;;5099520;28;20035;-74
2022/07/28 01:02:45;;;;;;;4.10;1.90;;;11.30;99.90;;;;;;5085882;28;20099;-72
2022/07/28 01:05:13;;;;;;;2.45;1.90;;;11.30;99.90;;;;;;5106445;28;20092;-72
2022/07/28 01:07:49;;;;;;;2.47;1.90;;;11.40;99.90;;;;;;5100186;28;20043;-75
2022/07/28 01:10:45;;;;;;;2.47;2.00;;;11.40;99.90;;;;;;5094026;28;20039;-76
2022/07/28 01:13:19;;;;;;;7.63;2.47;;;11.40;99.90;;;;;;5095665;28;20036;-75
2022/07/28 01:16:02;;;;;;;5.95;2.65;;;11.40;99.90;;;;;;5079417;28;20031;-76
2022/07/28 01:18:35;;;;;;;6.38;2.75;;;11.40;99.90;;;;;;5099926;28;20087;-75
2022/07/28 01:21:09;;;;;;;4.85;2.45;;;11.40;99.90;;;;;;5094358;28;20031;-75
2022/07/28 01:23:38;;;;;;;2.45;2.22;;;11.40;99.90;;;;;;5100351;28;20355;-76
2022/07/28 01:26:26;;;;;;;4.10;2.58;;;11.40;99.90;;;;;;5083073;28;20402;-75
2022/07/28 01:29:10;;;;;;;5.20;2.58;;;11.40;99.90;;;;;;5101175;28;20043;-75
2022/07/28 01:31:50;;;;;;;6.80;2.40;;;11.40;99.90;;;;;;5099167;28;20127;-75
2022/07/28 01:34:28;;;;;;;2.70;2.20;;;11.30;99.90;;;;;;5097435;28;20045;-76
2022/07/28 01:37:01;;;;;;;4.25;2.40;;;11.30;99.90;;;;;;5095676;28;20398;-76
2022/07/28 01:39:32;;;;;;;7.03;2.17;;;11.40;99.90;;;;;;5104177;28;20494;-76
2022/07/28 01:42:04;;;;;;;5.70;2.20;;;11.40;99.90;;;;;;5096348;28;20036;-76
2022/07/28 01:44:35;;;;;;;5.65;2.30;;;11.40;99.90;;;;;;5075435;28;20458;-76
2022/07/28 01:47:06;;;;;;;3.03;2.13;;;11.40;99.90;;;;;;5099683;28;20369;-76
2022/07/28 01:49:35;;;;;;;4.45;2.00;;;11.40;99.90;;;;;;5096574;28;20085;-75
2022/07/28 01:52:04;;;;;;;3.47;1.60;;;11.30;99.90;;;;;;5086974;28;20188;-75
2022/07/28 01:54:31;;;;;;;3.00;1.50;;;11.30;99.90;;;;;;5077326;28;20380;-75
2022/07/28 01:57:01;;;;;;;2.72;1.70;;;11.30;99.90;;;;;;5120885;27;20339;-76
2022/07/28 01:59:33;;;;;;;2.92;1.60;;;11.30;99.90;;;;;;5120155;28;20047;-74
2022/07/28 02:02:01;;;;;;;7.43;1.83;;;11.30;99.90;;;;;;5101369;28;20819;-76
2022/07/28 02:04:27;;;;;;;4.40;1.75;;;11.40;99.90;;;;;;5103799;28;20031;-76
2022/07/28 02:06:55;;;;;;;5.20;2.25;;;11.40;99.90;;;;;;5081739;28;20046;-75
2022/07/28 02:09:22;;;;;;;3.45;1.67;;;11.40;99.90;;;;;;5101808;28;20074;-75
2022/07/28 02:11:52;;;;;;;2.90;1.70;;;11.40;99.90;;;;;;5102629;27;20043;-75
2022/07/28 02:14:23;;;;;;;2.47;1.73;;;11.50;99.90;;;;;;5082427;28;20035;-75
2022/07/28 02:17:03;;;;;;;3.67;1.85;;;11.40;99.90;;;;;;5081213;28;20148;-75
2022/07/28 02:19:30;;;;;;;3.20;1.67;;;11.40;99.90;;;;;;5088417;28;20091;-75
2022/07/28 02:21:56;;;;;;;3.42;1.63;;;11.30;99.90;;;;;;5100799;28;20059;-74
2022/07/28 02:24:27;;;;;;;1.73;1.60;;;11.30;99.90;;;;;;5096986;28;20067;-72
2022/07/28 02:27:01;;;;;;;2.22;1.75;;;11.30;99.90;;;;;;5093971;27;20508;-73
2022/07/28 02:29:28;;;;;;;2.55;2.17;;;11.30;99.90;;;;;;5105284;27;20050;-75
2022/07/28 02:32:06;;;;;;;4.35;2.28;;;11.30;99.90;;;;;;5088950;27;20051;-75
2022/07/28 02:34:37;;;;;;;3.75;2.25;;;11.30;99.90;;;;;;5087772;27;20043;-74
2022/07/28 02:37:04;;;;;;;10.10;2.20;;;11.30;99.90;;;;;;5108358;27;20052;-75
2022/07/28 02:39:39;;;;;;;3.40;2.25;;;11.50;99.90;;;;;;5103659;27;20039;-75
2022/07/28 02:42:09;;;;;;;6.07;2.03;;;11.30;99.90;;;;;;5104015;27;20068;-75
2022/07/28 02:44:40;;;;;;;2.80;2.08;;;11.20;99.90;;;;;;5103494;27;20035;-74
2022/07/28 02:47:09;;;;;;;7.50;2.72;;;11.30;99.90;;;;;;5103395;27;20035;-75
2022/07/28 02:49:36;;;;;;;3.72;2.50;;;11.20;99.90;;;;;;5105063;27;20047;-75
2022/07/28 02:52:05;;;;;;;6.57;2.80;;;11.30;99.90;;;;;;5112250;27;20055;-75
2022/07/28 02:54:33;;;;;;;5.38;2.80;;;11.30;99.90;;;;;;5088030;27;20206;-74
2022/07/28 02:56:59;;;;;;;3.08;2.40;;;11.30;99.90;;;;;;5102810;27;20050;-75
2022/07/28 02:59:27;;;;;;;4.22;2.83;;;11.40;99.90;;;;;;5088675;27;20055;-75
2022/07/28 03:01:53;;;;;;;5.53;2.60;;;11.40;99.90;;;;;;5085495;27;20050;-76
2022/07/28 03:04:55;;;;;;;5.20;2.40;;;11.40;99.90;;;;;;5088556;27;20043;-74
2022/07/28 03:07:07;;;;;;;4.35;2.83;;;11.50;99.90;;;;;;5101109;27;20132;-75
2022/07/28 03:09:39;;;;;;;4.88;2.85;;;11.50;99.90;;;;;;5107306;27;20043;-74
2022/07/28 03:12:05;;;;;;;5.40;2.70;;;11.60;99.90;;;;;;5082181;27;20046;-75
2022/07/28 03:14:30;;;;;;;8.40;2.75;;;11.60;99.90;;;;;;5086384;27;20058;-75
2022/07/28 03:16:56;;;;;;;5.55;2.60;;;11.70;99.90;;;;;;5082214;27;20047;-75
2022/07/28 03:19:21;;;;;;;5.25;2.58;;;11.80;99.90;;;;;;5105296;27;20490;-74
2022/07/28 03:21:48;;;;;;;6.35;2.70;;;11.70;99.90;;;;;;5085528;27;20172;-74
2022/07/28 03:24:16;;;;;;;3.08;2.65;;;11.80;99.90;;;;;;5083415;27;20386;-76
2022/07/28 03:26:48;;;;;;;5.38;2.65;;;11.80;99.90;;;;;;5101174;27;20180;-75
2022/07/28 03:29:16;;;;;;;3.65;2.40;;;12.00;99.90;;;;;;5104876;27;20489;-75
2022/07/28 03:31:46;;;;;;;4.32;2.35;;;12.00;99.90;;;;;;5103984;27;20126;-74
2022/07/28 03:34:12;;;;;;;5.70;2.58;;;12.10;99.90;;;;;;5100092;27;20051;-74
2022/07/28 03:36:41;;;;;;;2.72;2.35;;;12.10;99.90;;;;;;5100011;27;20039;-75
2022/07/28 03:39:10;;;;;;;5.88;2.53;;;12.10;99.90;;;;;;5085080;27;20039;-74
2022/07/28 03:41:37;;;;;;;8.48;3.00;;;12.20;99.90;;;;;;5104140;27;20606;-75
2022/07/28 03:44:05;;;;;;;5.75;3.10;;;12.20;99.90;;;;;;5105298;27;20379;-74
2022/07/28 03:46:31;;;;;;;6.72;3.03;;;12.20;99.90;;;;;;5081744;27;20062;-74
2022/07/28 03:48:56;;;;;;;3.55;2.78;;;12.30;99.90;;;;;;5105148;27;20039;-73
2022/07/28 03:51:24;;;;;;;6.00;2.80;;;12.30;99.90;;;;;;5108201;27;20371;-73
2022/07/28 03:53:50;;;;;;;5.15;2.58;;;12.20;99.90;;;;;;5104026;27;20043;-75
2022/07/28 03:56:15;;;;;;;7.38;2.88;;;12.40;99.90;;;;;;5087750;27;20192;-76
2022/07/28 03:58:41;;;;;;;3.53;2.80;;;12.40;99.90;;;;;;5110619;27;20035;-75
2022/07/28 04:01:07;;;;;;;5.50;3.10;;;12.40;99.90;;;;;;5084652;27;20207;-76
2022/07/28 04:03:35;;;;;;;7.25;2.95;;;12.40;99.90;;;;;;5094604;27;20054;-75
2022/07/28 04:06:01;;;;;;;8.52;2.70;;;12.50;99.90;;;;;;5108950;27;20398;-75
2022/07/28 04:08:29;;;;;;;8.52;3.17;;;12.50;99.90;;;;;;5105018;27;20054;-74
2022/07/28 04:10:55;;;;;;;4.65;2.95;;;12.50;99.90;;;;;;5110096;27;20502;-74
2022/07/28 04:13:20;;;;;;;4.53;3.00;;;12.60;99.90;;;;;;5101083;27;21423;-75
2022/07/28 04:15:46;;;;;;;6.95;3.13;;;12.50;99.90;;;;;;5100117;27;20047;-74
2022/07/28 04:18:12;;;;;;;5.07;3.03;;;12.50;99.90;;;;;;5105880;27;20057;-74
2022/07/28 04:20:37;;;;;;;10.43;2.72;;;12.60;99.90;;;;;;5108673;27;20110;-75
2022/07/28 04:23:03;;;;;;;8.27;3.30;;;12.60;99.90;;;;;;5105191;27;20040;-75
2022/07/28 04:25:29;;;;;;;5.47;2.97;;;12.60;99.90;;;;;;5103552;27;20146;-75
2022/07/28 04:27:55;;;;;;;9.23;2.63;;;12.60;99.90;;;;;;5101987;28;20435;-75
2022/07/28 04:30:26;;;;;;;8.80;3.10;;;12.60;99.90;;;;;;5109084;27;20035;-75
2022/07/28 04:32:53;;;;;;;9.52;3.15;;;12.60;99.90;;;;;;5084551;27;20041;-75
2022/07/28 04:35:19;;;;;;;5.97;2.90;;;12.60;99.90;;;;;;5085557;27;20059;-75
2022/07/28 04:37:47;;;;;;;7.80;3.30;;;12.60;99.90;;;;;;5101586;27;20088;-76
2022/07/28 04:40:13;;;;;;;12.30;3.00;;;12.70;99.90;;;;;;5101419;27;20043;-75
2022/07/28 04:42:40;;;;;;;10.63;3.72;;;12.70;99.90;;;;;;5102213;27;20643;-75
2022/07/28 04:45:07;;;;;;;8.93;3.10;;;12.80;99.90;;;;;;5101277;27;20374;-75
2022/07/28 04:47:34;;;;;;;4.50;3.05;;;12.80;99.90;;;;;;5100408;27;20046;-76
2022/07/28 04:50:00;;;;;;;5.57;2.92;;;12.80;99.90;;;;;;5080042;27;20096;-75
2022/07/28 04:52:26;;;;;;;5.13;2.83;;;12.70;99.90;;;;;;5105972;27;20378;-77
2022/07/28 04:54:52;;;;;;;5.57;3.45;;;12.80;99.90;;;;;;5101529;27;20053;-75
2022/07/28 04:57:18;;;;;;;7.00;2.88;;;12.70;99.90;;;;;;5099294;27;20047;-75
2022/07/28 04:59:44;;;;;;;8.75;3.03;;;12.70;99.90;;;;;;5101664;27;20397;-74
2022/07/28 05:02:11;;;;;;;5.93;3.08;;;12.80;99.90;;;;;;5084996;27;20482;-76
2022/07/28 05:04:37;;;;;;;5.63;3.03;;;12.80;99.90;;;;;;5081830;27;20039;-76
2022/07/28 05:07:04;;;;;;;4.20;2.75;;;12.80;99.90;;;;;;5087994;27;20057;-74
2022/07/28 05:09:30;;;;;;;3.97;2.90;;;12.80;99.90;;;;;;5097892;27;20057;-76
2022/07/28 05:11:56;;;;;;;8.25;3.15;;;12.80;99.90;;;;;;5104478;27;20046;-76
2022/07/28 05:14:22;;;;;;;10.95;3.40;;;12.90;99.90;;;;;;5092805;27;20051;-74
2022/07/28 05:16:48;;;;;;;7.55;3.42;;;12.90;99.90;;;;;;5107761;28;20041;-75
2022/07/28 05:19:14;;;;;;;6.68;3.28;;;13.00;99.90;;;;;;5083186;28;20069;-74
2022/07/28 05:21:39;;;;;;;4.20;3.05;;;13.20;99.90;;;;;;5089120;28;20446;-77
2022/07/28 05:24:06;;;;;;;9.55;3.22;;;13.40;99.90;;;;;;5086805;27;21554;-76
2022/07/28 05:26:35;;;;;;;6.72;3.00;;;13.50;99.90;;;;;;5080309;28;20038;-76
2022/07/28 05:29:04;;;;;;;8.88;2.75;;;13.50;99.90;;;;;;5086166;28;20389;-76
2022/07/28 05:31:29;;;;;;;3.63;2.60;;;13.60;99.90;;;;;;5100188;28;20059;-75
2022/07/28 05:33:55;;;;;;;4.47;2.80;;;13.70;99.90;;;;;;5096154;28;20044;-76
2022/07/28 05:36:21;;;;;;;4.32;2.80;;;13.80;99.90;;;;;;5081840;28;20108;-77
2022/07/28 05:38:46;;;;;;;5.38;3.10;;;13.90;99.90;;;;;;5099584;28;20089;-75
2022/07/28 05:41:12;;;;;;;5.85;3.20;;;14.00;99.90;;;;;;5083506;28;20410;-77
2022/07/28 05:43:38;;;;;;;6.50;3.22;;;14.00;99.90;;;;;;5088081;28;20046;-76
2022/07/28 05:46:04;;;;;;;7.60;2.95;;;14.10;99.90;;;;;;5076471;28;20504;-76
2022/07/28 05:48:30;;;;;;;7.55;2.95;;;14.20;99.90;;;;;;5097376;28;20141;-77
2022/07/28 05:50:56;;;;;;;9.05;2.60;;;14.40;99.90;;;;;;5106501;28;20031;-76
2022/07/28 05:53:22;;;;;;;7.20;2.80;;;14.40;99.90;;;;;;5101164;28;20039;-74
2022/07/28 05:55:48;;;;;;;13.45;2.35;;;14.50;99.90;;;;;;5082752;28;20598;-75
2022/07/28 05:58:14;;;;;;;5.53;2.60;;;14.60;99.90;;;;;;5083236;28;20035;-74
2022/07/28 06:00:40;;;;;;;5.32;2.45;;;14.60;99.90;;;;;;5101662;27;20387;-74
2022/07/28 06:03:06;;;;;;;4.28;2.00;;;14.70;99.90;;;;;;5106196;27;20080;-75
2022/07/28 06:05:36;;;;;;;5.57;1.60;;;14.80;99.90;;;;;;5103534;27;20047;-73
2022/07/28 06:08:04;;;;;;;6.78;1.88;;;14.80;99.90;;;;;;5103691;27;20046;-74
2022/07/28 06:10:57;;;;;;;3.92;1.55;;;14.80;99.90;;;;;;5087687;27;20114;-74
2022/07/28 06:13:17;;;;;;;7.22;1.88;;;14.90;99.90;;;;;;5108136;27;20439;-74
2022/07/28 06:15:46;;;;;;;4.88;1.60;;;15.00;99.90;;;;;;5104037;27;20474;-74
2022/07/28 06:18:11;;;;;;;8.95;1.83;;;15.20;99.90;;;;;;5103062;27;20128;-74
2022/07/28 06:20:37;;;;;;;4.18;1.50;;;15.20;99.90;;;;;;5108370;27;21316;-75
2022/07/28 06:23:03;;;;;;;5.30;2.00;;;15.30;99.90;;;;;;5125412;27;20669;-75
2022/07/28 06:25:30;;;;;;;6.03;1.58;;;15.40;99.90;;;;;;5103221;27;20092;-74
2022/07/28 06:28:01;;;;;;;6.55;1.65;;;15.50;99.90;;;;;;5102116;27;20046;-75
2022/07/28 06:30:27;;;;;;;5.10;1.90;;;15.50;99.90;;;;;;5088092;27;20043;-75
2022/07/28 06:32:54;;;;;;;7.07;1.45;;;15.60;99.90;;;;;;5088644;27;20126;-75
2022/07/28 06:35:20;;;;;;;7.72;1.88;;;15.70;99.90;;;;;;5110860;27;20046;-75
2022/07/28 06:37:46;;;;;;;9.85;1.67;;;15.70;99.90;;;;;;5098030;27;20051;-72
2022/07/28 06:40:13;;;;;;;10.23;1.60;;;15.70;99.90;;;;;;5110741;27;20343;-72
2022/07/28 06:42:41;;;;;;;7.70;1.52;;;15.70;99.90;;;;;;5107639;27;20046;-75
2022/07/28 06:45:08;;;;;;;4.50;1.40;;;15.80;99.90;;;;;;5095997;27;20043;-74
2022/07/28 06:47:34;;;;;;;5.97;1.65;;;15.70;99.90;;;;;;5060867;28;20047;-75
2022/07/28 06:50:00;;;;;;;8.07;1.75;;;15.80;99.90;;;;;;5077739;28;20037;-75
2022/07/28 06:52:26;;;;;;;4.75;1.65;;;15.90;99.90;;;;;;5065436;28;20048;-75
2022/07/28 06:54:52;;;;;;;6.45;1.90;;;15.90;99.90;;;;;;5045931;28;20133;-74
2022/07/28 06:57:19;;;;;;;5.32;1.50;;;15.90;99.90;;;;;;5043522;28;21022;-75
2022/07/28 06:59:45;;;;;;;7.85;1.70;;;15.80;99.90;;;;;;5063612;28;20072;-74
2022/07/28 07:02:15;;;;;;;7.00;1.90;;;15.70;99.90;;;;;;5043391;28;20136;-75
2022/07/28 07:04:41;;;;;;;4.35;1.63;;;15.80;99.90;;;;;;5060207;28;20048;-74
2022/07/28 07:07:07;;;;;;;4.85;1.60;;;15.70;99.90;;;;;;5060692;28;20505;-75
2022/07/28 07:09:33;;;;;;;5.20;1.60;;;15.50;99.90;;;;;;5055617;28;20064;-74
2022/07/28 07:11:59;;;;;;;4.88;1.35;;;15.40;99.90;;;;;;5062035;28;20036;-73
2022/07/28 07:14:25;;;;;;;8.48;1.75;;;15.30;99.90;;;;;;5062518;28;20052;-76
2022/07/28 07:16:52;;;;;;;8.30;2.17;;;15.30;99.90;;;;;;5062604;28;20063;-75
2022/07/28 07:19:19;;;;;;;9.57;2.05;;;15.30;99.90;;;;;;5063970;28;20056;-74
2022/07/28 07:21:45;;;;;;;9.90;2.63;;;15.30;99.90;;;;;;5061503;28;20123;-74
2022/07/28 07:24:11;;;;;;;8.65;2.13;;;15.30;99.90;;;;;;5063260;28;20098;-74
2022/07/28 07:26:37;;;;;;;7.78;2.10;;;15.30;99.90;;;;;;5067380;28;20044;-75
2022/07/28 07:29:06;;;;;;;4.85;1.45;;;15.20;99.90;;;;;;5068306;28;20048;-74
2022/07/28 07:31:35;;;;;;;3.50;1.40;;;15.60;99.90;;;;;;5066663;28;20063;-74
2022/07/28 07:34:02;;;;;;;5.20;1.63;;;15.60;99.90;;;;;;5065565;28;20055;-74
2022/07/28 07:36:28;;;;;;;13.55;1.90;;;15.90;99.90;;;;;;5060564;28;20055;-73
2022/07/28 07:38:54;;;;;;;3.83;1.40;;;16.00;99.90;;;;;;5046542;28;20419;-73
2022/07/28 07:41:19;;;;;;;7.70;1.92;;;16.50;99.90;;;;;;5065371;28;20044;-75
2022/07/28 07:43:46;;;;;;;6.07;1.40;;;16.70;99.90;;;;;;5066519;28;20420;-74
2022/07/28 07:46:12;;;;;;;8.98;1.70;;;17.00;99.90;;;;;;5066012;28;20150;-73
2022/07/28 07:48:37;;;;;;;7.10;1.50;;;17.30;99.90;;;;;;5052914;28;20060;-74
2022/07/28 07:51:04;;;;;;;7.50;2.72;;;17.50;99.90;;;;;;5066299;28;20063;-75
2022/07/28 07:53:29;;;;;;;8.20;2.35;;;17.50;99.90;;;;;;5051374;28;20040;-75
2022/07/28 07:55:55;;;;;;;10.35;2.15;;;17.30;99.90;;;;;;5067894;28;20052;-75
2022/07/28 07:58:23;;;;;;;7.43;2.17;;;17.20;99.90;;;;;;5053536;28;20490;-74
2022/07/28 08:00:49;;;;;;;7.68;1.98;;;17.10;99.90;;;;;;5060957;28;20090;-74
2022/07/28 08:03:15;;;;;;;9.23;2.13;;;17.20;99.90;;;;;;5059148;28;20390;-76
2022/07/28 08:05:42;;;;;;;6.43;2.35;;;17.20;99.90;;;;;;5063845;28;20127;-76
2022/07/28 08:08:08;;;;;;;7.53;1.90;;;17.30;99.90;;;;;;5066431;28;20466;-74
2022/07/28 08:10:35;;;;;;;7.63;2.10;;;17.30;99.90;;;;;;5067443;28;20051;-75
2022/07/28 08:13:01;;;;;;;5.90;1.70;;;17.10;99.90;;;;;;5051285;28;20127;-74
2022/07/28 08:15:30;;;;;;;11.07;1.55;;;17.10;99.90;;;;;;5064888;28;20134;-74
2022/07/28 08:17:55;;;;;;;5.78;1.52;;;17.10;99.90;;;;;;5047756;28;20499;-76
2022/07/28 08:20:21;;;;;;;6.93;1.60;;;17.20;99.90;;;;;;5047912;28;20051;-77
2022/07/28 08:22:53;;;;;;;6.85;1.40;;;17.10;99.90;;;;;;5064677;28;20143;-75
2022/07/28 08:25:19;;;;;;;4.38;1.20;;;17.10;99.90;;;;;;5061606;28;20053;-79
2022/07/28 08:27:45;;;;;;;6.15;1.42;;;17.20;99.90;;;;;;5062806;28;20341;-73
2022/07/28 08:30:13;;;;;;;6.90;1.30;;;17.20;99.90;;;;;;5065357;28;20064;-73
2022/07/28 08:32:40;;;;;;;6.97;1.35;;;17.10;99.90;;;;;;5063650;28;20058;-74
2022/07/28 08:35:06;;;;;;;7.43;1.38;;;17.40;99.90;;;;;;5067244;28;20071;-73
2022/07/28 08:37:35;;;;;;;3.90;1.25;;;17.60;99.90;;;;;;5070498;28;20063;-73
2022/07/28 08:40:02;;;;;;;3.70;1.30;;;17.70;99.90;;;;;;5068157;28;20053;-73
2022/07/28 08:42:42;;;;;;;5.50;1.52;;;18.00;99.90;;;;;;5067631;28;20052;-73
2022/07/28 08:45:10;;;;;;;4.07;1.17;;;18.10;99.90;;;;;;5070223;28;20059;-73
2022/07/28 08:47:37;;;;;;;4.75;1.05;;;18.30;99.90;;;;;;5053595;28;20094;-74
2022/07/28 08:50:03;;;;;;;5.75;1.13;;;18.50;99.90;;;;;;5063653;28;20045;-74
2022/07/28 08:52:30;;;;;;;4.88;1.30;;;18.60;99.90;;;;;;5063822;28;20122;-72
2022/07/28 08:54:57;;;;;;;5.22;1.13;;;18.70;99.90;;;;;;5063073;28;20109;-72
2022/07/28 08:57:42;;;;;;;2.88;1.13;;;18.80;99.90;;;;;;5061445;28;20131;-77
2022/07/28 09:00:09;;;;;;;4.05;1.00;;;18.80;99.90;;;;;;5066450;28;20047;-73
2022/07/28 09:02:39;;;;;;;5.00;1.10;;;18.70;99.90;;;;;;5063805;28;20040;-75
2022/07/28 09:05:06;;;;;;;2.95;1.00;;;18.70;99.90;;;;;;5063172;28;20394;-73
2022/07/28 09:07:36;;;;;;;1.85;0.77;;;18.70;99.90;;;;;;5062816;28;20072;-73
2022/07/28 09:10:04;;;;;;;3.75;1.23;;;18.70;99.90;;;;;;5064091;28;20048;-72
2022/07/28 09:12:33;;;;;;;3.42;0.98;;;18.60;99.90;;;;;;5034027;28;20132;-72
2022/07/28 09:15:04;;;;;;;3.70;1.00;;;18.50;99.90;;;;;;5066215;28;20076;-73
2022/07/28 09:17:31;;;;;;;5.22;1.27;;;18.30;99.90;;;;;;5063092;28;20098;-74
2022/07/28 09:19:57;;;;;;;4.53;1.10;;;18.30;99.90;;;;;;5052134;28;20072;-70
2022/07/28 09:22:22;;;;;;;4.90;1.30;;;18.30;99.90;;;;;;5055083;28;20091;-71
2022/07/28 09:24:48;;;;;;;4.90;1.20;;;18.40;99.90;;;;;;5077730;28;20047;-73
2022/07/28 09:27:14;;;;;;;8.57;1.05;;;18.60;99.90;;;;;;5052864;28;20123;-76
2022/07/28 09:29:44;;;;;;;1.80;0.88;;;18.60;99.90;;;;;;5068182;28;20051;-70
2022/07/28 09:32:12;;;;;;;4.68;0.90;;;18.50;99.90;;;;;;5069301;28;20053;-73
2022/07/28 09:34:40;;;;;;;2.55;0.95;;;18.60;99.90;;;;;;5063259;28;20131;-73
2022/07/28 09:37:15;;;;;;;4.05;0.90;;;18.70;99.90;;;;;;5065462;28;20048;-71
2022/07/28 09:39:41;;;;;;;3.88;1.10;;;18.80;99.90;;;;;;5049244;28;20044;-74
2022/07/28 09:42:06;;;;;;;5.95;1.08;;;18.90;99.90;;;;;;5066718;28;20502;-73
2022/07/28 09:44:32;;;;;;;5.13;0.85;;;19.00;99.90;;;;;;5060448;28;20040;-75
2022/07/28 09:46:57;;;;;;;1.88;0.90;;;19.10;99.90;;;;;;5067809;28;20123;-75
2022/07/28 09:49:41;;;;;;;4.15;0.90;;;19.40;99.90;;;;;;5062842;28;20079;-75
2022/07/28 09:52:07;;;;;;;4.30;1.27;;;19.70;99.90;;;;;;5068882;28;20049;-77
2022/07/28 09:54:33;;;;;;;8.43;1.15;;;19.90;99.90;;;;;;5066183;28;20044;-74
2022/07/28 09:56:58;;;;;;;2.85;0.90;;;19.70;99.90;;;;;;5066626;28;20085;-74
2022/07/28 09:59:24;;;;;;;1.90;0.80;;;19.70;99.90;;;;;;5069697;28;20052;-76
2022/07/28 10:01:59;;;;;;;5.10;1.00;;;19.70;99.90;;;;;;5073251;28;20052;-74
2022/07/28 10:04:40;;;;;;;6.53;1.00;;;19.90;99.90;;;;;;5053580;28;20172;-74
2022/07/28 10:07:09;;;;;;;8.18;0.90;;;20.20;99.90;;;;;;5065455;28;20055;-75
2022/07/28 10:09:37;;;;;;;3.10;1.10;;;20.20;99.90;;;;;;5066376;28;20490;-74
2022/07/28 10:12:20;;;;;;;4.38;1.10;;;20.50;99.90;;;;;;5061787;28;20040;-73
2022/07/28 10:14:47;;;;;;;4.40;0.95;;;20.30;99.90;;;;;;5062223;28;20137;-74
2022/07/28 10:17:27;;;;;;;3.40;1.00;;;20.50;99.90;;;;;;5061696;28;20131;-74
2022/07/28 10:19:53;;;;;;;2.70;1.00;;;20.30;99.90;;;;;;5069474;28;20903;-74
2022/07/28 10:22:21;;;;;;;3.30;0.82;;;20.10;99.90;;;;;;5056073;28;20148;-72
2022/07/28 10:24:51;;;;;;;2.72;0.70;;;19.70;99.90;;;;;;5063572;28;20397;-75
2022/07/28 10:27:19;;;;;;;3.88;0.95;;;19.70;99.90;;;;;;5059012;28;20044;-74
2022/07/28 10:29:46;;;;;;;2.38;0.88;;;19.50;99.90;;;;;;5057969;28;20164;-73
2022/07/28 10:32:11;;;;;;;4.03;0.90;;;19.80;99.90;;;;;;5061251;28;20102;-75
2022/07/28 10:34:49;;;;;;;2.22;0.80;;;20.00;99.90;;;;;;5062230;28;20056;-73
2022/07/28 10:37:21;;;;;;;2.33;0.77;;;20.20;99.90;;;;;;5061500;28;20392;-74
2022/07/28 10:39:56;;;;;;;3.53;1.48;;;20.70;99.90;;;;;;5068276;28;20488;-73
2022/07/28 10:42:22;;;;;;;2.67;0.77;;;21.10;99.90;;;;;;5069143;28;20044;-76
2022/07/28 10:44:49;;;;;;;1.73;0.70;;;21.40;99.70;;;;;;5064439;28;20053;-71
2022/07/28 10:47:16;;;;;;;3.35;0.85;;;21.30;99.50;;;;;;5062890;28;20071;-74
2022/07/28 10:49:42;;;;;;;2.05;0.70;;;21.10;99.60;;;;;;5061599;28;20148;-74
2022/07/28 10:52:09;;;;;;;5.65;1.08;;;21.30;99.80;;;;;;5049214;28;20163;-75
2022/07/28 10:54:53;;;;;;;1.27;0.70;;;21.60;99.80;;;;;;5044779;28;20070;-74
2022/07/28 10:57:21;;;;;;;3.35;0.90;;;21.50;98.80;;;;;;5058543;28;20053;-72
2022/07/28 11:00:23;;;;;;;2.88;0.95;;;21.10;98.70;;;;;;5060195;28;20100;-75
2022/07/28 11:03:00;;;;;;;4.10;0.75;;;21.10;99.20;;;;;;5057786;28;20127;-75
2022/07/28 11:05:42;;;;;;;1.73;0.70;;;20.90;99.40;;;;;;5049127;28;20045;-74
2022/07/28 11:08:28;;;;;;;3.13;0.80;;;21.00;98.90;;;;;;5053167;28;20547;-75
2022/07/28 11:10:56;;;;;;;4.88;0.70;;;20.80;98.40;;;;;;5054301;28;20057;-75
2022/07/28 11:13:29;;;;;;;1.10;0.70;;;20.70;98.60;;;;;;5053234;28;20174;-74
2022/07/28 11:16:14;;;;;;;3.80;0.93;;;20.60;99.00;;;;;;5078006;28;20036;-74
2022/07/28 11:19:09;;;;;;;2.72;0.80;;;20.60;99.00;;;;;;5054279;28;20052;-74
2022/07/28 11:21:35;;;;;;;1.30;0.65;;;20.40;99.30;;;;;;5054825;28;20514;-74
2022/07/28 11:24:01;;;;;;;2.63;0.88;;;20.30;99.80;;;;;;5048451;28;20144;-74
2022/07/28 11:26:34;;;;;;;2.90;0.80;;;19.80;99.90;;;;;;5057543;28;20114;-73
2022/07/28 11:29:03;;;;;;;4.50;0.80;;;19.70;99.90;;;;;;5070943;28;20399;-74
2022/07/28 11:31:44;;;;;;;3.38;0.70;;;19.70;99.90;;;;;;5047080;28;21880;-74
2022/07/28 11:34:09;;;;;;;5.10;0.90;;;19.70;99.90;;;;;;5049326;28;20087;-76
2022/07/28 11:36:58;;;;;;;3.88;1.10;;;19.70;99.90;;;;;;5047760;28;20076;-77
2022/07/28 11:39:25;;;;;;;2.65;0.90;;;19.50;99.90;;;;;;5057732;28;20044;-74
2022/07/28 11:41:51;;;;;;;5.82;0.82;;;19.60;99.90;;;;;;5063758;28;20051;-76
2022/07/28 11:44:31;;;;;;;2.97;0.82;;;19.60;99.90;;;;;;5063717;28;20498;-78
2022/07/28 11:47:20;;;;;;;3.15;0.70;;;19.90;99.90;;;;;;5064683;28;20044;-78
2022/07/28 11:50:15;;;;;;;1.80;0.77;;;20.00;99.90;;;;;;5068520;28;20399;-76
2022/07/28 11:52:55;;;;;;;1.50;0.85;;;20.20;99.90;;;;;;5052579;28;20061;-77
2022/07/28 11:55:20;;;;;;;3.78;1.00;;;20.20;99.90;;;;;;5048646;28;20127;-76
2022/07/28 11:57:46;;;;;;;2.67;1.00;;;20.40;99.90;;;;;;5069943;28;20598;-77
2022/07/28 12:00:20;;;;;;;5.93;1.00;;;20.30;99.90;;;;;;5070571;28;20141;-77
2022/07/28 12:02:46;;;;;;;6.25;1.00;;;20.70;99.90;;;;;;5054734;28;20041;-77
2022/07/28 12:05:13;;;;;;;1.92;0.90;;;21.00;99.90;;;;;;5073198;28;20127;-76
2022/07/28 12:07:45;;;;;;;3.38;0.80;;;21.10;99.70;;;;;;5077868;28;20048;-72
2022/07/28 12:10:33;;;;;;;2.45;0.95;;;21.30;99.70;;;;;;5069228;28;20049;-74
2022/07/28 12:13:06;;;;;;;3.65;1.00;;;21.20;98.90;;;;;;5062446;28;20046;-76
2022/07/28 12:15:35;;;;;;;4.53;0.90;;;21.00;98.90;;;;;;5069746;28;20082;-75
2022/07/28 12:18:03;;;;;;;4.32;1.00;;;20.90;98.40;;;;;;5066289;28;20183;-73
2022/07/28 12:20:33;;;;;;;2.40;0.90;;;20.90;98.70;;;;;;5069384;28;20048;-74
2022/07/28 12:23:00;;;;;;;4.88;0.90;;;20.80;98.40;;;;;;5064462;28;20128;-74
2022/07/28 12:25:27;;;;;;;2.42;0.90;;;20.60;98.50;;;;;;5044104;28;20044;-75
2022/07/28 12:27:53;;;;;;;2.20;0.90;;;20.60;98.70;;;;;;5040937;28;20059;-74
2022/07/28 12:30:26;;;;;;;2.47;0.82;;;20.70;98.50;;;;;;5068079;28;20114;-73
2022/07/28 12:32:53;;;;;;;1.77;0.70;;;20.90;98.10;;;;;;5050897;28;20504;-74
2022/07/28 12:35:20;;;;;;;2.92;0.80;;;21.10;97.60;;;;;;5067201;28;20048;-72
2022/07/28 12:37:47;;;;;;;3.92;0.70;;;21.40;98.10;;;;;;5065386;28;20479;-72
2022/07/28 12:40:15;;;;;;;2.65;0.90;;;21.70;97.50;;;;;;5048516;28;20068;-74
2022/07/28 12:42:41;;;;;;;4.45;1.00;;;22.40;97.90;;;;;;5047345;28;20083;-75
2022/07/28 12:45:08;;;;;;;2.00;0.77;;;22.70;97.80;;;;;;5070358;28;20464;-74
2022/07/28 12:47:34;;;;;;;4.78;1.00;;;22.90;96.90;;;;;;5065099;28;20080;-75
2022/07/28 12:50:12;;;;;;;2.92;0.80;;;23.50;97.20;;;;;;5066980;28;20084;-74
2022/07/28 12:52:39;;;;;;;1.75;0.63;;;22.90;95.90;;;;;;5070385;28;20454;-74
2022/07/28 12:55:29;;;;;;;1.92;0.80;;;22.60;96.20;;;;;;5069123;28;20068;-73
2022/07/28 12:57:55;;;;;;;3.97;1.00;;;22.20;96.10;;;;;;5062831;28;20049;-71